Cummings, North Dakota
Current Conditions -  °F | °C
As of 4:53 AM on Friday 28 Nov 2014 (Local Time) from KGFK Reporting Station
Overcast Overcast  
Wind Chill: -19°   Ceiling: 2700
Heat Index: -12°   Visibility: 10mi
Dew Point: -14°   Wind: 9mph
Humidity: 81%   Direction: 140°SE
Pressure: 30.02"   Gusts: NA
Location:  47.51°N, 97.08°W
Report Text: KGFK 281053Z AUTO 14008KT 10SM OVC027 M12/M14 A3002 RMK AO2 SLP189 T11171144 TSNO
Loading
Personal Weather Stations






























Interactive Weather Map New forecast layout! Learn more

10-Day Weather Forecast

Advertisements
Track Severe Weather on mobile